sensor_id;sensor_type;location;lat;lon;timestamp;P1;durP1;ratioP1;P2;durP2;ratioP2
19617;SDS011;9956;51.006;13.670;2022-11-15T00:04:23;65.82;;;41.88;;
19617;SDS011;9956;51.006;13.670;2022-11-15T00:09:42;71.18;;;41.53;;
19617;SDS011;9956;51.006;13.670;2022-11-15T00:15:01;71.40;;;41.20;;
19617;SDS011;9956;51.006;13.670;2022-11-15T00:20:20;74.65;;;43.90;;
19617;SDS011;9956;51.006;13.670;2022-11-15T00:25:39;72.22;;;42.15;;
19617;SDS011;9956;51.006;13.670;2022-11-15T00:31:05;60.95;;;37.80;;
19617;SDS011;9956;51.006;13.670;2022-11-15T00:36:25;67.03;;;40.22;;
19617;SDS011;9956;51.006;13.670;2022-11-15T00:41:45;71.05;;;40.58;;
19617;SDS011;9956;51.006;13.670;2022-11-15T00:47:04;61.95;;;38.85;;
19617;SDS011;9956;51.006;13.670;2022-11-15T00:52:23;59.80;;;39.33;;
19617;SDS011;9956;51.006;13.670;2022-11-15T00:57:42;62.25;;;37.75;;
19617;SDS011;9956;51.006;13.670;2022-11-15T01:03:01;60.70;;;37.45;;
19617;SDS011;9956;51.006;13.670;2022-11-15T01:08:20;55.95;;;35.78;;
19617;SDS011;9956;51.006;13.670;2022-11-15T01:13:39;70.65;;;39.75;;
19617;SDS011;9956;51.006;13.670;2022-11-15T01:18:59;64.70;;;38.75;;
19617;SDS011;9956;51.006;13.670;2022-11-15T01:24:18;61.22;;;37.63;;
19617;SDS011;9956;51.006;13.670;2022-11-15T01:29:37;66.15;;;36.90;;
19617;SDS011;9956;51.006;13.670;2022-11-15T01:34:56;65.65;;;38.17;;
19617;SDS011;9956;51.006;13.670;2022-11-15T01:40:15;52.10;;;34.38;;
19617;SDS011;9956;51.006;13.670;2022-11-15T01:45:33;62.30;;;35.78;;
19617;SDS011;9956;51.006;13.670;2022-11-15T01:50:52;60.97;;;34.97;;
19617;SDS011;9956;51.006;13.670;2022-11-15T01:56:12;63.33;;;37.42;;
19617;SDS011;9956;51.006;13.670;2022-11-15T02:01:34;59.80;;;34.88;;
19617;SDS011;9956;51.006;13.670;2022-11-15T02:06:53;66.93;;;36.80;;
19617;SDS011;9956;51.006;13.670;2022-11-15T02:12:14;56.10;;;33.05;;
19617;SDS011;9956;51.006;13.670;2022-11-15T02:17:41;64.70;;;35.33;;
19617;SDS011;9956;51.006;13.670;2022-11-15T02:23:31;66.20;;;35.72;;
19617;SDS011;9956;51.006;13.670;2022-11-15T02:29:06;60.47;;;33.85;;
19617;SDS011;9956;51.006;13.670;2022-11-15T02:40:20;70.70;;;38.67;;
19617;SDS011;9956;51.006;13.670;2022-11-15T02:45:47;75.45;;;38.75;;
19617;SDS011;9956;51.006;13.670;2022-11-15T02:51:08;64.28;;;35.50;;
19617;SDS011;9956;51.006;13.670;2022-11-15T02:56:28;62.35;;;35.35;;
19617;SDS011;9956;51.006;13.670;2022-11-15T03:07:14;58.38;;;32.17;;
19617;SDS011;9956;51.006;13.670;2022-11-15T03:12:38;63.70;;;34.92;;
19617;SDS011;9956;51.006;13.670;2022-11-15T03:18:12;59.60;;;33.50;;
19617;SDS011;9956;51.006;13.670;2022-11-15T03:23:35;55.17;;;32.42;;
19617;SDS011;9956;51.006;13.670;2022-11-15T03:28:56;50.35;;;31.35;;
19617;SDS011;9956;51.006;13.670;2022-11-15T03:39:45;54.55;;;30.10;;
19617;SDS011;9956;51.006;13.670;2022-11-15T03:50:57;62.85;;;32.95;;
19617;SDS011;9956;51.006;13.670;2022-11-15T03:56:16;51.92;;;29.48;;
19617;SDS011;9956;51.006;13.670;2022-11-15T04:01:35;56.95;;;31.52;;
19617;SDS011;9956;51.006;13.670;2022-11-15T04:06:54;62.20;;;33.25;;
19617;SDS011;9956;51.006;13.670;2022-11-15T04:12:13;51.53;;;29.50;;
19617;SDS011;9956;51.006;13.670;2022-11-15T04:17:50;59.63;;;34.50;;
19617;SDS011;9956;51.006;13.670;2022-11-15T04:23:15;58.90;;;32.95;;
19617;SDS011;9956;51.006;13.670;2022-11-15T04:28:55;55.63;;;31.48;;
19617;SDS011;9956;51.006;13.670;2022-11-15T04:34:32;64.55;;;35.47;;
19617;SDS011;9956;51.006;13.670;2022-11-15T04:39:51;58.45;;;32.50;;
19617;SDS011;9956;51.006;13.670;2022-11-15T04:45:10;55.58;;;32.00;;
19617;SDS011;9956;51.006;13.670;2022-11-15T04:50:29;50.95;;;29.98;;
19617;SDS011;9956;51.006;13.670;2022-11-15T04:55:48;50.45;;;29.90;;
19617;SDS011;9956;51.006;13.670;2022-11-15T05:01:08;55.40;;;29.65;;
19617;SDS011;9956;51.006;13.670;2022-11-15T05:06:27;53.30;;;31.05;;
19617;SDS011;9956;51.006;13.670;2022-11-15T05:11:47;53.17;;;31.98;;
19617;SDS011;9956;51.006;13.670;2022-11-15T05:17:06;58.10;;;31.65;;
19617;SDS011;9956;51.006;13.670;2022-11-15T05:22:25;52.97;;;29.05;;
19617;SDS011;9956;51.006;13.670;2022-11-15T05:27:44;53.25;;;29.52;;
19617;SDS011;9956;51.006;13.670;2022-11-15T05:33:03;56.80;;;31.45;;
19617;SDS011;9956;51.006;13.670;2022-11-15T05:38:23;53.22;;;30.65;;
19617;SDS011;9956;51.006;13.670;2022-11-15T05:43:42;57.13;;;33.35;;
19617;SDS011;9956;51.006;13.670;2022-11-15T05:49:03;54.72;;;31.60;;
19617;SDS011;9956;51.006;13.670;2022-11-15T05:54:24;50.53;;;29.90;;
19617;SDS011;9956;51.006;13.670;2022-11-15T05:59:43;55.22;;;30.70;;
19617;SDS011;9956;51.006;13.670;2022-11-15T06:05:03;56.83;;;32.33;;
19617;SDS011;9956;51.006;13.670;2022-11-15T06:10:22;63.42;;;36.88;;
19617;SDS011;9956;51.006;13.670;2022-11-15T06:15:41;59.13;;;35.70;;
19617;SDS011;9956;51.006;13.670;2022-11-15T06:21:00;64.30;;;33.92;;
19617;SDS011;9956;51.006;13.670;2022-11-15T06:26:19;60.00;;;33.05;;
19617;SDS011;9956;51.006;13.670;2022-11-15T06:31:38;59.78;;;32.67;;
19617;SDS011;9956;51.006;13.670;2022-11-15T06:36:57;61.70;;;34.70;;
19617;SDS011;9956;51.006;13.670;2022-11-15T06:42:16;65.80;;;33.67;;
19617;SDS011;9956;51.006;13.670;2022-11-15T06:47:34;68.07;;;42.20;;
19617;SDS011;9956;51.006;13.670;2022-11-15T06:52:54;60.78;;;34.95;;
19617;SDS011;9956;51.006;13.670;2022-11-15T06:58:13;56.83;;;35.03;;
19617;SDS011;9956;51.006;13.670;2022-11-15T07:03:36;63.88;;;36.42;;
19617;SDS011;9956;51.006;13.670;2022-11-15T07:08:56;71.05;;;42.58;;
19617;SDS011;9956;51.006;13.670;2022-11-15T07:14:15;59.33;;;36.95;;
19617;SDS011;9956;51.006;13.670;2022-11-15T07:19:34;59.28;;;36.00;;
19617;SDS011;9956;51.006;13.670;2022-11-15T07:24:52;56.20;;;35.10;;
19617;SDS011;9956;51.006;13.670;2022-11-15T07:30:12;47.38;;;33.53;;
19617;SDS011;9956;51.006;13.670;2022-11-15T07:35:32;43.75;;;30.45;;
19617;SDS011;9956;51.006;13.670;2022-11-15T07:40:55;37.33;;;27.17;;
19617;SDS011;9956;51.006;13.670;2022-11-15T07:46:32;32.25;;;23.85;;
19617;SDS011;9956;51.006;13.670;2022-11-15T07:51:51;22.63;;;18.88;;
19617;SDS011;9956;51.006;13.670;2022-11-15T07:57:10;21.10;;;16.63;;
19617;SDS011;9956;51.006;13.670;2022-11-15T08:02:29;19.50;;;17.05;;
19617;SDS011;9956;51.006;13.670;2022-11-15T08:07:48;27.80;;;24.38;;
19617;SDS011;9956;51.006;13.670;2022-11-15T08:13:08;18.58;;;16.65;;
19617;SDS011;9956;51.006;13.670;2022-11-15T08:18:27;18.67;;;15.05;;
19617;SDS011;9956;51.006;13.670;2022-11-15T08:23:47;18.98;;;16.52;;
19617;SDS011;9956;51.006;13.670;2022-11-15T08:29:06;21.45;;;18.27;;
19617;SDS011;9956;51.006;13.670;2022-11-15T08:34:27;20.95;;;17.73;;
19617;SDS011;9956;51.006;13.670;2022-11-15T08:39:46;35.28;;;25.05;;
19617;SDS011;9956;51.006;13.670;2022-11-15T08:45:05;30.88;;;25.08;;
19617;SDS011;9956;51.006;13.670;2022-11-15T08:50:25;29.55;;;22.73;;
19617;SDS011;9956;51.006;13.670;2022-11-15T08:55:44;24.20;;;20.65;;
19617;SDS011;9956;51.006;13.670;2022-11-15T09:01:03;29.77;;;21.55;;
19617;SDS011;9956;51.006;13.670;2022-11-15T09:06:22;26.75;;;23.10;;
19617;SDS011;9956;51.006;13.670;2022-11-15T09:11:41;31.50;;;22.63;;
19617;SDS011;9956;51.006;13.670;2022-11-15T09:17:00;25.75;;;20.98;;
19617;SDS011;9956;51.006;13.670;2022-11-15T09:22:20;27.52;;;20.23;;
19617;SDS011;9956;51.006;13.670;2022-11-15T09:27:39;21.05;;;16.02;;
19617;SDS011;9956;51.006;13.670;2022-11-15T09:32:58;18.48;;;14.93;;
19617;SDS011;9956;51.006;13.670;2022-11-15T09:38:17;18.20;;;14.70;;
19617;SDS011;9956;51.006;13.670;2022-11-15T09:49:08;18.08;;;14.43;;
19617;SDS011;9956;51.006;13.670;2022-11-15T09:54:36;17.90;;;16.05;;
19617;SDS011;9956;51.006;13.670;2022-11-15T10:04:53;15.82;;;13.75;;
19617;SDS011;9956;51.006;13.670;2022-11-15T10:09:56;14.93;;;13.43;;
19617;SDS011;9956;51.006;13.670;2022-11-15T10:15:06;13.43;;;12.18;;
19617;SDS011;9956;51.006;13.670;2022-11-15T10:20:27;16.83;;;15.23;;
19617;SDS011;9956;51.006;13.670;2022-11-15T10:25:29;17.95;;;16.30;;
19617;SDS011;9956;51.006;13.670;2022-11-15T10:30:35;19.58;;;17.65;;
19617;SDS011;9956;51.006;13.670;2022-11-15T10:35:38;19.95;;;17.95;;
19617;SDS011;9956;51.006;13.670;2022-11-15T10:40:39;22.40;;;19.98;;
19617;SDS011;9956;51.006;13.670;2022-11-15T10:45:41;22.63;;;20.42;;
19617;SDS011;9956;51.006;13.670;2022-11-15T10:50:42;22.25;;;19.95;;
19617;SDS011;9956;51.006;13.670;2022-11-15T10:55:46;22.00;;;19.80;;
19617;SDS011;9956;51.006;13.670;2022-11-15T11:00:47;22.08;;;19.88;;
19617;SDS011;9956;51.006;13.670;2022-11-15T11:05:48;19.90;;;17.73;;
19617;SDS011;9956;51.006;13.670;2022-11-15T11:10:52;21.48;;;18.95;;
19617;SDS011;9956;51.006;13.670;2022-11-15T11:21:22;21.73;;;19.42;;
19617;SDS011;9956;51.006;13.670;2022-11-15T11:26:45;18.70;;;16.80;;
19617;SDS011;9956;51.006;13.670;2022-11-15T11:42:26;19.98;;;17.88;;
19617;SDS011;9956;51.006;13.670;2022-11-15T11:47:37;19.58;;;17.52;;
19617;SDS011;9956;51.006;13.670;2022-11-15T11:52:42;20.55;;;18.35;;
19617;SDS011;9956;51.006;13.670;2022-11-15T11:58:04;22.48;;;20.13;;
19617;SDS011;9956;51.006;13.670;2022-11-15T12:08:52;19.63;;;17.52;;
19617;SDS011;9956;51.006;13.670;2022-11-15T12:14:01;20.00;;;17.77;;
19617;SDS011;9956;51.006;13.670;2022-11-15T12:19:08;19.80;;;17.77;;
19617;SDS011;9956;51.006;13.670;2022-11-15T12:24:12;20.50;;;18.40;;
19617;SDS011;9956;51.006;13.670;2022-11-15T12:29:18;21.83;;;19.52;;
19617;SDS011;9956;51.006;13.670;2022-11-15T12:45:25;21.70;;;17.73;;
19617;SDS011;9956;51.006;13.670;2022-11-15T13:06:42;21.08;;;17.88;;
19617;SDS011;9956;51.006;13.670;2022-11-15T13:11:45;20.70;;;17.90;;
19617;SDS011;9956;51.006;13.670;2022-11-15T13:16:47;19.90;;;17.77;;
19617;SDS011;9956;51.006;13.670;2022-11-15T13:21:49;23.75;;;18.08;;
19617;SDS011;9956;51.006;13.670;2022-11-15T13:27:28;20.92;;;17.33;;
19617;SDS011;9956;51.006;13.670;2022-11-15T13:32:28;20.17;;;16.38;;
19617;SDS011;9956;51.006;13.670;2022-11-15T13:37:29;20.98;;;17.40;;
19617;SDS011;9956;51.006;13.670;2022-11-15T13:42:31;22.85;;;17.67;;
19617;SDS011;9956;51.006;13.670;2022-11-15T13:47:31;21.67;;;17.25;;
19617;SDS011;9956;51.006;13.670;2022-11-15T13:52:33;20.95;;;18.20;;
19617;SDS011;9956;51.006;13.670;2022-11-15T13:57:46;18.75;;;16.75;;
19617;SDS011;9956;51.006;13.670;2022-11-15T14:02:48;18.45;;;15.85;;
19617;SDS011;9956;51.006;13.670;2022-11-15T14:13:28;18.92;;;16.98;;
19617;SDS011;9956;51.006;13.670;2022-11-15T14:23:47;22.48;;;17.38;;
19617;SDS011;9956;51.006;13.670;2022-11-15T14:28:49;19.25;;;17.13;;
19617;SDS011;9956;51.006;13.670;2022-11-15T14:33:49;21.27;;;17.83;;
19617;SDS011;9956;51.006;13.670;2022-11-15T14:38:49;23.40;;;18.48;;
19617;SDS011;9956;51.006;13.670;2022-11-15T14:43:50;23.17;;;18.17;;
19617;SDS011;9956;51.006;13.670;2022-11-15T14:48:51;21.17;;;18.30;;
19617;SDS011;9956;51.006;13.670;2022-11-15T14:53:52;24.05;;;17.33;;
19617;SDS011;9956;51.006;13.670;2022-11-15T14:58:52;20.60;;;16.40;;
19617;SDS011;9956;51.006;13.670;2022-11-15T15:03:54;26.65;;;18.65;;
19617;SDS011;9956;51.006;13.670;2022-11-15T15:08:58;22.42;;;17.77;;
19617;SDS011;9956;51.006;13.670;2022-11-15T15:13:59;26.45;;;18.92;;
19617;SDS011;9956;51.006;13.670;2022-11-15T15:19:01;24.17;;;18.58;;
19617;SDS011;9956;51.006;13.670;2022-11-15T15:24:02;23.70;;;18.05;;
19617;SDS011;9956;51.006;13.670;2022-11-15T15:29:03;23.63;;;18.27;;
19617;SDS011;9956;51.006;13.670;2022-11-15T15:34:03;23.38;;;17.35;;
19617;SDS011;9956;51.006;13.670;2022-11-15T15:39:04;25.08;;;18.33;;
19617;SDS011;9956;51.006;13.670;2022-11-15T15:44:04;26.58;;;19.02;;
19617;SDS011;9956;51.006;13.670;2022-11-15T15:49:05;24.80;;;19.35;;
19617;SDS011;9956;51.006;13.670;2022-11-15T15:54:05;25.98;;;18.67;;
19617;SDS011;9956;51.006;13.670;2022-11-15T15:59:05;23.05;;;17.15;;
19617;SDS011;9956;51.006;13.670;2022-11-15T16:04:06;24.23;;;17.77;;
19617;SDS011;9956;51.006;13.670;2022-11-15T16:09:08;27.33;;;18.77;;
19617;SDS011;9956;51.006;13.670;2022-11-15T16:14:13;26.52;;;19.73;;
19617;SDS011;9956;51.006;13.670;2022-11-15T16:19:13;25.85;;;19.42;;
19617;SDS011;9956;51.006;13.670;2022-11-15T16:24:13;28.65;;;20.77;;
19617;SDS011;9956;51.006;13.670;2022-11-15T16:29:14;34.78;;;23.05;;
19617;SDS011;9956;51.006;13.670;2022-11-15T16:34:14;28.95;;;21.05;;
19617;SDS011;9956;51.006;13.670;2022-11-15T16:39:21;29.52;;;20.63;;
19617;SDS011;9956;51.006;13.670;2022-11-15T16:44:22;35.63;;;26.08;;
19617;SDS011;9956;51.006;13.670;2022-11-15T16:49:23;36.47;;;27.67;;
19617;SDS011;9956;51.006;13.670;2022-11-15T16:54:24;35.53;;;25.70;;
19617;SDS011;9956;51.006;13.670;2022-11-15T16:59:24;31.98;;;23.52;;
19617;SDS011;9956;51.006;13.670;2022-11-15T17:04:25;27.30;;;20.67;;
19617;SDS011;9956;51.006;13.670;2022-11-15T17:09:31;26.58;;;18.25;;
19617;SDS011;9956;51.006;13.670;2022-11-15T17:14:33;25.33;;;18.35;;
19617;SDS011;9956;51.006;13.670;2022-11-15T17:19:33;25.33;;;19.38;;
19617;SDS011;9956;51.006;13.670;2022-11-15T17:24:34;27.75;;;21.27;;
19617;SDS011;9956;51.006;13.670;2022-11-15T17:29:34;24.83;;;18.50;;
19617;SDS011;9956;51.006;13.670;2022-11-15T17:34:35;27.90;;;19.00;;
19617;SDS011;9956;51.006;13.670;2022-11-15T17:39:35;26.70;;;18.50;;
19617;SDS011;9956;51.006;13.670;2022-11-15T17:44:35;26.02;;;18.55;;
19617;SDS011;9956;51.006;13.670;2022-11-15T17:49:36;32.40;;;21.98;;
19617;SDS011;9956;51.006;13.670;2022-11-15T17:54:39;25.98;;;19.45;;
19617;SDS011;9956;51.006;13.670;2022-11-15T17:59:40;27.85;;;20.17;;
19617;SDS011;9956;51.006;13.670;2022-11-15T18:04:40;26.13;;;20.58;;
19617;SDS011;9956;51.006;13.670;2022-11-15T18:09:41;25.83;;;19.58;;
19617;SDS011;9956;51.006;13.670;2022-11-15T18:14:42;30.55;;;21.70;;
19617;SDS011;9956;51.006;13.670;2022-11-15T18:19:43;27.40;;;20.80;;
19617;SDS011;9956;51.006;13.670;2022-11-15T18:24:43;26.42;;;19.83;;
19617;SDS011;9956;51.006;13.670;2022-11-15T18:29:46;28.40;;;21.05;;
19617;SDS011;9956;51.006;13.670;2022-11-15T18:34:46;26.70;;;21.20;;
19617;SDS011;9956;51.006;13.670;2022-11-15T18:39:46;29.02;;;20.85;;
19617;SDS011;9956;51.006;13.670;2022-11-15T18:44:47;27.83;;;21.60;;
19617;SDS011;9956;51.006;13.670;2022-11-15T18:49:47;28.58;;;20.58;;
19617;SDS011;9956;51.006;13.670;2022-11-15T18:54:48;26.92;;;20.08;;
19617;SDS011;9956;51.006;13.670;2022-11-15T18:59:48;26.23;;;20.35;;
19617;SDS011;9956;51.006;13.670;2022-11-15T19:04:49;25.17;;;19.85;;
19617;SDS011;9956;51.006;13.670;2022-11-15T19:09:49;28.33;;;20.48;;
19617;SDS011;9956;51.006;13.670;2022-11-15T19:14:49;42.30;;;27.73;;
19617;SDS011;9956;51.006;13.670;2022-11-15T19:19:50;30.52;;;22.23;;
19617;SDS011;9956;51.006;13.670;2022-11-15T19:24:50;28.33;;;21.27;;
19617;SDS011;9956;51.006;13.670;2022-11-15T19:29:51;28.08;;;19.70;;
19617;SDS011;9956;51.006;13.670;2022-11-15T19:34:51;27.05;;;19.42;;
19617;SDS011;9956;51.006;13.670;2022-11-15T19:39:51;29.30;;;22.13;;
19617;SDS011;9956;51.006;13.670;2022-11-15T19:44:52;29.20;;;20.77;;
19617;SDS011;9956;51.006;13.670;2022-11-15T19:49:52;31.92;;;20.40;;
19617;SDS011;9956;51.006;13.670;2022-11-15T19:54:53;29.05;;;21.15;;
19617;SDS011;9956;51.006;13.670;2022-11-15T19:59:53;28.70;;;20.30;;
19617;SDS011;9956;51.006;13.670;2022-11-15T20:04:54;28.15;;;19.80;;
19617;SDS011;9956;51.006;13.670;2022-11-15T20:09:54;27.08;;;19.77;;
19617;SDS011;9956;51.006;13.670;2022-11-15T20:14:54;26.13;;;19.55;;
19617;SDS011;9956;51.006;13.670;2022-11-15T20:19:58;27.92;;;20.63;;
19617;SDS011;9956;51.006;13.670;2022-11-15T20:25:00;30.58;;;21.58;;
19617;SDS011;9956;51.006;13.670;2022-11-15T20:30:00;30.38;;;19.58;;
19617;SDS011;9956;51.006;13.670;2022-11-15T20:35:09;29.33;;;19.27;;
19617;SDS011;9956;51.006;13.670;2022-11-15T20:40:09;26.75;;;17.83;;
19617;SDS011;9956;51.006;13.670;2022-11-15T20:45:10;29.38;;;19.45;;
19617;SDS011;9956;51.006;13.670;2022-11-15T20:50:11;26.35;;;17.85;;
19617;SDS011;9956;51.006;13.670;2022-11-15T20:55:11;27.42;;;18.45;;
19617;SDS011;9956;51.006;13.670;2022-11-15T21:00:12;26.05;;;18.73;;
19617;SDS011;9956;51.006;13.670;2022-11-15T21:05:12;26.77;;;18.63;;
19617;SDS011;9956;51.006;13.670;2022-11-15T21:10:13;24.73;;;17.50;;
19617;SDS011;9956;51.006;13.670;2022-11-15T21:15:32;25.77;;;18.60;;
19617;SDS011;9956;51.006;13.670;2022-11-15T21:20:32;26.38;;;17.77;;
19617;SDS011;9956;51.006;13.670;2022-11-15T21:25:33;25.42;;;17.73;;
19617;SDS011;9956;51.006;13.670;2022-11-15T21:30:33;24.85;;;18.13;;
19617;SDS011;9956;51.006;13.670;2022-11-15T21:35:34;27.92;;;16.95;;
19617;SDS011;9956;51.006;13.670;2022-11-15T21:40:34;25.75;;;18.63;;
19617;SDS011;9956;51.006;13.670;2022-11-15T21:45:35;25.60;;;16.98;;
19617;SDS011;9956;51.006;13.670;2022-11-15T21:50:35;21.88;;;15.77;;
19617;SDS011;9956;51.006;13.670;2022-11-15T21:55:37;24.13;;;16.20;;
19617;SDS011;9956;51.006;13.670;2022-11-15T22:00:38;23.33;;;15.77;;
19617;SDS011;9956;51.006;13.670;2022-11-15T22:05:57;26.30;;;17.45;;
19617;SDS011;9956;51.006;13.670;2022-11-15T22:10:57;26.98;;;17.92;;
19617;SDS011;9956;51.006;13.670;2022-11-15T22:15:58;28.50;;;19.88;;
19617;SDS011;9956;51.006;13.670;2022-11-15T22:20:59;40.03;;;29.48;;
19617;SDS011;9956;51.006;13.670;2022-11-15T22:26:04;54.42;;;42.05;;
19617;SDS011;9956;51.006;13.670;2022-11-15T22:31:06;62.85;;;48.53;;
19617;SDS011;9956;51.006;13.670;2022-11-15T22:36:07;46.60;;;35.53;;
19617;SDS011;9956;51.006;13.670;2022-11-15T22:41:08;35.08;;;22.92;;
19617;SDS011;9956;51.006;13.670;2022-11-15T22:46:09;31.50;;;22.38;;
19617;SDS011;9956;51.006;13.670;2022-11-15T22:51:09;39.15;;;26.30;;
19617;SDS011;9956;51.006;13.670;2022-11-15T22:56:10;35.55;;;26.58;;
19617;SDS011;9956;51.006;13.670;2022-11-15T23:01:17;39.08;;;27.27;;
19617;SDS011;9956;51.006;13.670;2022-11-15T23:06:19;36.28;;;24.95;;
19617;SDS011;9956;51.006;13.670;2022-11-15T23:11:20;31.98;;;24.05;;
19617;SDS011;9956;51.006;13.670;2022-11-15T23:16:39;33.63;;;25.65;;
19617;SDS011;9956;51.006;13.670;2022-11-15T23:21:40;34.10;;;22.33;;
19617;SDS011;9956;51.006;13.670;2022-11-15T23:27:03;28.25;;;18.63;;
19617;SDS011;9956;51.006;13.670;2022-11-15T23:32:07;28.65;;;21.83;;
19617;SDS011;9956;51.006;13.670;2022-11-15T23:37:26;31.50;;;22.45;;
19617;SDS011;9956;51.006;13.670;2022-11-15T23:42:26;29.10;;;20.92;;
19617;SDS011;9956;51.006;13.670;2022-11-15T23:47:27;27.23;;;18.73;;
19617;SDS011;9956;51.006;13.670;2022-11-15T23:52:27;24.90;;;18.02;;
19617;SDS011;9956;51.006;13.670;2022-11-15T23:57:34;27.23;;;18.58;;
